sensor_id;sensor_type;location;lat;lon;timestamp;P1;durP1;ratioP1;P2;durP2;ratioP2
19609;SDS011;9952;47.122;-1.638;2022-08-01T00:04:35;8.83;;;4.50;;
19609;SDS011;9952;47.122;-1.638;2022-08-01T00:09:16;12.10;;;4.80;;
19609;SDS011;9952;47.122;-1.638;2022-08-01T00:13:57;5.07;;;4.17;;
19609;SDS011;9952;47.122;-1.638;2022-08-01T00:18:38;7.80;;;4.17;;
19609;SDS011;9952;47.122;-1.638;2022-08-01T00:23:18;9.00;;;4.37;;
19609;SDS011;9952;47.122;-1.638;2022-08-01T00:27:59;9.67;;;4.20;;
19609;SDS011;9952;47.122;-1.638;2022-08-01T00:32:43;6.07;;;4.40;;
19609;SDS011;9952;47.122;-1.638;2022-08-01T00:37:24;8.23;;;4.23;;
19609;SDS011;9952;47.122;-1.638;2022-08-01T00:42:11;6.20;;;3.80;;
19609;SDS011;9952;47.122;-1.638;2022-08-01T00:46:52;4.30;;;3.90;;
19609;SDS011;9952;47.122;-1.638;2022-08-01T00:51:33;8.07;;;3.83;;
19609;SDS011;9952;47.122;-1.638;2022-08-01T00:56:15;5.90;;;3.57;;
19609;SDS011;9952;47.122;-1.638;2022-08-01T01:00:55;8.27;;;3.23;;
19609;SDS011;9952;47.122;-1.638;2022-08-01T01:05:40;6.00;;;3.57;;
19609;SDS011;9952;47.122;-1.638;2022-08-01T01:10:47;5.63;;;3.77;;
19609;SDS011;9952;47.122;-1.638;2022-08-01T01:15:38;7.87;;;3.70;;
19609;SDS011;9952;47.122;-1.638;2022-08-01T01:20:26;5.67;;;3.83;;
19609;SDS011;9952;47.122;-1.638;2022-08-01T01:30:34;8.10;;;3.97;;
19609;SDS011;9952;47.122;-1.638;2022-08-01T01:35:19;6.17;;;3.60;;
19609;SDS011;9952;47.122;-1.638;2022-08-01T01:40:04;9.13;;;3.67;;
19609;SDS011;9952;47.122;-1.638;2022-08-01T01:44:47;6.47;;;3.53;;
19609;SDS011;9952;47.122;-1.638;2022-08-01T01:49:29;6.40;;;3.80;;
19609;SDS011;9952;47.122;-1.638;2022-08-01T01:54:11;4.83;;;3.30;;
19609;SDS011;9952;47.122;-1.638;2022-08-01T01:58:53;6.30;;;3.90;;
19609;SDS011;9952;47.122;-1.638;2022-08-01T02:03:37;6.30;;;4.17;;
19609;SDS011;9952;47.122;-1.638;2022-08-01T02:08:21;5.33;;;3.60;;
19609;SDS011;9952;47.122;-1.638;2022-08-01T02:13:04;7.67;;;3.80;;
19609;SDS011;9952;47.122;-1.638;2022-08-01T02:17:47;7.57;;;3.60;;
19609;SDS011;9952;47.122;-1.638;2022-08-01T02:22:33;6.10;;;3.60;;
19609;SDS011;9952;47.122;-1.638;2022-08-01T02:27:34;7.47;;;3.53;;
19609;SDS011;9952;47.122;-1.638;2022-08-01T02:32:27;6.73;;;3.50;;
19609;SDS011;9952;47.122;-1.638;2022-08-01T02:37:14;6.57;;;3.63;;
19609;SDS011;9952;47.122;-1.638;2022-08-01T02:42:00;4.93;;;3.50;;
19609;SDS011;9952;47.122;-1.638;2022-08-01T02:46:47;7.30;;;3.37;;
19609;SDS011;9952;47.122;-1.638;2022-08-01T02:51:31;9.13;;;4.10;;
19609;SDS011;9952;47.122;-1.638;2022-08-01T02:56:14;3.93;;;3.27;;
19609;SDS011;9952;47.122;-1.638;2022-08-01T03:00:56;3.90;;;3.30;;
19609;SDS011;9952;47.122;-1.638;2022-08-01T03:05:38;4.20;;;2.77;;
19609;SDS011;9952;47.122;-1.638;2022-08-01T03:10:21;5.67;;;2.97;;
19609;SDS011;9952;47.122;-1.638;2022-08-01T03:15:04;4.33;;;2.80;;
19609;SDS011;9952;47.122;-1.638;2022-08-01T03:19:46;5.57;;;3.03;;
19609;SDS011;9952;47.122;-1.638;2022-08-01T03:24:29;6.37;;;3.70;;
19609;SDS011;9952;47.122;-1.638;2022-08-01T03:29:15;6.37;;;3.27;;
19609;SDS011;9952;47.122;-1.638;2022-08-01T03:33:58;5.23;;;3.10;;
19609;SDS011;9952;47.122;-1.638;2022-08-01T03:38:39;6.40;;;3.40;;
19609;SDS011;9952;47.122;-1.638;2022-08-01T03:43:28;5.73;;;3.57;;
19609;SDS011;9952;47.122;-1.638;2022-08-01T03:48:18;3.50;;;3.07;;
19609;SDS011;9952;47.122;-1.638;2022-08-01T03:53:02;5.30;;;3.43;;
19609;SDS011;9952;47.122;-1.638;2022-08-01T03:57:46;7.00;;;3.50;;
19609;SDS011;9952;47.122;-1.638;2022-08-01T04:02:28;4.23;;;3.30;;
19609;SDS011;9952;47.122;-1.638;2022-08-01T04:07:24;5.03;;;3.50;;
19609;SDS011;9952;47.122;-1.638;2022-08-01T04:12:07;4.00;;;3.10;;
19609;SDS011;9952;47.122;-1.638;2022-08-01T04:16:48;6.87;;;3.50;;
19609;SDS011;9952;47.122;-1.638;2022-08-01T04:21:29;6.47;;;3.50;;
19609;SDS011;9952;47.122;-1.638;2022-08-01T04:26:12;6.23;;;3.80;;
19609;SDS011;9952;47.122;-1.638;2022-08-01T04:30:56;6.83;;;4.07;;
19609;SDS011;9952;47.122;-1.638;2022-08-01T04:35:39;7.60;;;4.70;;
19609;SDS011;9952;47.122;-1.638;2022-08-01T04:40:23;7.33;;;5.30;;
19609;SDS011;9952;47.122;-1.638;2022-08-01T04:45:06;8.43;;;5.07;;
19609;SDS011;9952;47.122;-1.638;2022-08-01T04:49:48;12.33;;;6.93;;
19609;SDS011;9952;47.122;-1.638;2022-08-01T04:54:30;11.00;;;5.63;;
19609;SDS011;9952;47.122;-1.638;2022-08-01T04:59:13;7.80;;;5.27;;
19609;SDS011;9952;47.122;-1.638;2022-08-01T05:04:13;7.33;;;5.20;;
19609;SDS011;9952;47.122;-1.638;2022-08-01T05:08:53;7.20;;;4.97;;
19609;SDS011;9952;47.122;-1.638;2022-08-01T05:13:34;8.87;;;4.87;;
19609;SDS011;9952;47.122;-1.638;2022-08-01T05:18:15;8.73;;;4.93;;
19609;SDS011;9952;47.122;-1.638;2022-08-01T05:22:56;7.57;;;4.57;;
19609;SDS011;9952;47.122;-1.638;2022-08-01T05:27:37;8.57;;;4.83;;
19609;SDS011;9952;47.122;-1.638;2022-08-01T05:32:20;8.37;;;5.40;;
19609;SDS011;9952;47.122;-1.638;2022-08-01T05:37:01;10.13;;;5.40;;
19609;SDS011;9952;47.122;-1.638;2022-08-01T05:41:42;9.17;;;5.57;;
19609;SDS011;9952;47.122;-1.638;2022-08-01T05:46:24;9.70;;;4.80;;
19609;SDS011;9952;47.122;-1.638;2022-08-01T05:51:05;6.83;;;4.83;;
19609;SDS011;9952;47.122;-1.638;2022-08-01T05:55:46;7.37;;;4.73;;
19609;SDS011;9952;47.122;-1.638;2022-08-01T06:00:26;8.80;;;5.47;;
19609;SDS011;9952;47.122;-1.638;2022-08-01T06:05:08;6.60;;;4.17;;
19609;SDS011;9952;47.122;-1.638;2022-08-01T06:09:49;6.83;;;4.33;;
19609;SDS011;9952;47.122;-1.638;2022-08-01T06:14:30;7.17;;;5.03;;
19609;SDS011;9952;47.122;-1.638;2022-08-01T06:19:11;8.90;;;4.57;;
19609;SDS011;9952;47.122;-1.638;2022-08-01T06:23:51;6.93;;;4.50;;
19609;SDS011;9952;47.122;-1.638;2022-08-01T06:28:32;6.97;;;4.43;;
19609;SDS011;9952;47.122;-1.638;2022-08-01T06:33:13;6.40;;;4.80;;
19609;SDS011;9952;47.122;-1.638;2022-08-01T06:37:54;8.87;;;4.13;;
19609;SDS011;9952;47.122;-1.638;2022-08-01T06:42:35;5.60;;;4.53;;
19609;SDS011;9952;47.122;-1.638;2022-08-01T06:47:16;11.60;;;6.13;;
19609;SDS011;9952;47.122;-1.638;2022-08-01T06:51:57;9.30;;;5.30;;
19609;SDS011;9952;47.122;-1.638;2022-08-01T06:56:38;5.87;;;4.37;;
19609;SDS011;9952;47.122;-1.638;2022-08-01T07:01:18;8.13;;;5.07;;
19609;SDS011;9952;47.122;-1.638;2022-08-01T07:06:00;7.60;;;4.53;;
19609;SDS011;9952;47.122;-1.638;2022-08-01T07:10:41;10.60;;;4.20;;
19609;SDS011;9952;47.122;-1.638;2022-08-01T07:15:23;11.70;;;4.23;;
19609;SDS011;9952;47.122;-1.638;2022-08-01T07:20:07;4.83;;;3.90;;
19609;SDS011;9952;47.122;-1.638;2022-08-01T07:24:50;6.63;;;4.07;;
19609;SDS011;9952;47.122;-1.638;2022-08-01T07:29:31;6.33;;;4.33;;
19609;SDS011;9952;47.122;-1.638;2022-08-01T07:34:12;6.93;;;5.00;;
19609;SDS011;9952;47.122;-1.638;2022-08-01T07:38:52;6.20;;;4.67;;
19609;SDS011;9952;47.122;-1.638;2022-08-01T07:43:33;8.03;;;4.30;;
19609;SDS011;9952;47.122;-1.638;2022-08-01T07:48:15;5.97;;;3.87;;
19609;SDS011;9952;47.122;-1.638;2022-08-01T07:52:56;7.43;;;4.10;;
19609;SDS011;9952;47.122;-1.638;2022-08-01T07:57:37;11.10;;;3.97;;
19609;SDS011;9952;47.122;-1.638;2022-08-01T08:02:18;6.23;;;3.93;;
19609;SDS011;9952;47.122;-1.638;2022-08-01T08:06:59;6.90;;;4.60;;
19609;SDS011;9952;47.122;-1.638;2022-08-01T08:11:41;6.43;;;4.00;;
19609;SDS011;9952;47.122;-1.638;2022-08-01T08:16:23;7.77;;;4.10;;
19609;SDS011;9952;47.122;-1.638;2022-08-01T08:21:04;9.03;;;4.57;;
19609;SDS011;9952;47.122;-1.638;2022-08-01T08:25:45;5.13;;;3.83;;
19609;SDS011;9952;47.122;-1.638;2022-08-01T08:30:26;5.47;;;3.80;;
19609;SDS011;9952;47.122;-1.638;2022-08-01T08:35:07;6.60;;;4.00;;
19609;SDS011;9952;47.122;-1.638;2022-08-01T08:39:48;6.47;;;3.90;;
19609;SDS011;9952;47.122;-1.638;2022-08-01T08:44:29;8.47;;;4.37;;
19609;SDS011;9952;47.122;-1.638;2022-08-01T08:49:11;6.17;;;3.80;;
19609;SDS011;9952;47.122;-1.638;2022-08-01T08:53:55;6.17;;;4.07;;
19609;SDS011;9952;47.122;-1.638;2022-08-01T08:58:37;4.17;;;3.70;;
19609;SDS011;9952;47.122;-1.638;2022-08-01T09:03:18;7.50;;;4.03;;
19609;SDS011;9952;47.122;-1.638;2022-08-01T09:07:59;9.40;;;4.27;;
19609;SDS011;9952;47.122;-1.638;2022-08-01T09:12:40;10.10;;;4.33;;
19609;SDS011;9952;47.122;-1.638;2022-08-01T09:17:47;6.00;;;4.00;;
19609;SDS011;9952;47.122;-1.638;2022-08-01T09:22:28;5.07;;;3.77;;
19609;SDS011;9952;47.122;-1.638;2022-08-01T09:27:18;5.47;;;4.00;;
19609;SDS011;9952;47.122;-1.638;2022-08-01T09:32:00;4.43;;;4.00;;
19609;SDS011;9952;47.122;-1.638;2022-08-01T09:36:46;9.47;;;4.33;;
19609;SDS011;9952;47.122;-1.638;2022-08-01T09:41:33;4.80;;;3.17;;
19609;SDS011;9952;47.122;-1.638;2022-08-01T09:46:22;4.90;;;3.40;;
19609;SDS011;9952;47.122;-1.638;2022-08-01T09:51:04;4.97;;;3.17;;
19609;SDS011;9952;47.122;-1.638;2022-08-01T09:55:45;3.37;;;3.00;;
19609;SDS011;9952;47.122;-1.638;2022-08-01T10:00:26;4.50;;;3.63;;
19609;SDS011;9952;47.122;-1.638;2022-08-01T10:05:07;6.43;;;3.90;;
19609;SDS011;9952;47.122;-1.638;2022-08-01T10:09:50;5.37;;;3.13;;
19609;SDS011;9952;47.122;-1.638;2022-08-01T10:14:31;4.27;;;3.20;;
19609;SDS011;9952;47.122;-1.638;2022-08-01T10:19:12;5.97;;;3.30;;
19609;SDS011;9952;47.122;-1.638;2022-08-01T10:23:54;3.80;;;3.10;;
19609;SDS011;9952;47.122;-1.638;2022-08-01T10:28:36;5.50;;;2.67;;
19609;SDS011;9952;47.122;-1.638;2022-08-01T10:33:18;3.73;;;3.00;;
19609;SDS011;9952;47.122;-1.638;2022-08-01T10:38:02;3.87;;;2.70;;
19609;SDS011;9952;47.122;-1.638;2022-08-01T10:42:44;5.67;;;2.57;;
19609;SDS011;9952;47.122;-1.638;2022-08-01T10:47:30;6.10;;;2.50;;
19609;SDS011;9952;47.122;-1.638;2022-08-01T10:52:18;5.83;;;2.60;;
19609;SDS011;9952;47.122;-1.638;2022-08-01T10:56:59;3.30;;;2.30;;
19609;SDS011;9952;47.122;-1.638;2022-08-01T11:01:40;7.97;;;2.43;;
19609;SDS011;9952;47.122;-1.638;2022-08-01T11:06:25;2.17;;;1.97;;
19609;SDS011;9952;47.122;-1.638;2022-08-01T11:11:15;2.73;;;2.27;;
19609;SDS011;9952;47.122;-1.638;2022-08-01T11:15:56;5.30;;;2.20;;
19609;SDS011;9952;47.122;-1.638;2022-08-01T11:21:06;4.05;;;2.38;;
19609;SDS011;9952;47.122;-1.638;2022-08-01T11:30:28;2.90;;;2.00;;
19609;SDS011;9952;47.122;-1.638;2022-08-01T11:35:10;3.83;;;2.13;;
19609;SDS011;9952;47.122;-1.638;2022-08-01T11:45:06;2.58;;;1.80;;
19609;SDS011;9952;47.122;-1.638;2022-08-01T11:49:49;3.17;;;1.98;;
19609;SDS011;9952;47.122;-1.638;2022-08-01T11:59:19;3.42;;;2.03;;
19609;SDS011;9952;47.122;-1.638;2022-08-01T12:04:01;2.78;;;1.73;;
19609;SDS011;9952;47.122;-1.638;2022-08-01T12:08:42;3.55;;;2.03;;
19609;SDS011;9952;47.122;-1.638;2022-08-01T12:13:23;1.90;;;1.70;;
19609;SDS011;9952;47.122;-1.638;2022-08-01T12:18:05;2.58;;;1.80;;
19609;SDS011;9952;47.122;-1.638;2022-08-01T12:22:46;4.47;;;1.67;;
19609;SDS011;9952;47.122;-1.638;2022-08-01T12:27:28;4.53;;;1.73;;
19609;SDS011;9952;47.122;-1.638;2022-08-01T12:32:23;3.08;;;1.70;;
19609;SDS011;9952;47.122;-1.638;2022-08-01T12:37:10;3.15;;;1.40;;
19609;SDS011;9952;47.122;-1.638;2022-08-01T12:41:52;2.25;;;1.60;;
19609;SDS011;9952;47.122;-1.638;2022-08-01T12:46:33;1.88;;;1.25;;
19609;SDS011;9952;47.122;-1.638;2022-08-01T12:51:14;4.93;;;1.75;;
19609;SDS011;9952;47.122;-1.638;2022-08-01T12:55:55;3.95;;;1.35;;
19609;SDS011;9952;47.122;-1.638;2022-08-01T13:00:36;1.60;;;1.25;;
19609;SDS011;9952;47.122;-1.638;2022-08-01T13:05:19;1.98;;;1.10;;
19609;SDS011;9952;47.122;-1.638;2022-08-01T13:10:05;4.32;;;1.27;;
19609;SDS011;9952;47.122;-1.638;2022-08-01T13:14:46;1.83;;;1.05;;
19609;SDS011;9952;47.122;-1.638;2022-08-01T13:19:43;2.25;;;1.20;;
19609;SDS011;9952;47.122;-1.638;2022-08-01T13:24:28;2.00;;;1.13;;
19609;SDS011;9952;47.122;-1.638;2022-08-01T13:29:11;1.92;;;1.20;;
19609;SDS011;9952;47.122;-1.638;2022-08-01T13:33:56;3.35;;;1.20;;
19609;SDS011;9952;47.122;-1.638;2022-08-01T13:38:37;0.93;;;0.93;;
19609;SDS011;9952;47.122;-1.638;2022-08-01T13:43:37;2.55;;;1.10;;
19609;SDS011;9952;47.122;-1.638;2022-08-01T13:48:18;1.73;;;0.70;;
19609;SDS011;9952;47.122;-1.638;2022-08-01T13:52:59;1.35;;;0.80;;
19609;SDS011;9952;47.122;-1.638;2022-08-01T13:57:40;1.40;;;1.08;;
19609;SDS011;9952;47.122;-1.638;2022-08-01T14:02:21;1.58;;;1.00;;
19609;SDS011;9952;47.122;-1.638;2022-08-01T14:07:01;1.25;;;0.90;;
19609;SDS011;9952;47.122;-1.638;2022-08-01T14:11:42;2.53;;;1.10;;
19609;SDS011;9952;47.122;-1.638;2022-08-01T14:16:23;1.45;;;1.13;;
19609;SDS011;9952;47.122;-1.638;2022-08-01T14:21:04;1.10;;;0.77;;
19609;SDS011;9952;47.122;-1.638;2022-08-01T14:25:45;2.42;;;0.90;;
19609;SDS011;9952;47.122;-1.638;2022-08-01T14:30:26;1.85;;;0.82;;
19609;SDS011;9952;47.122;-1.638;2022-08-01T14:35:06;2.70;;;0.70;;
19609;SDS011;9952;47.122;-1.638;2022-08-01T14:39:48;2.35;;;0.95;;
19609;SDS011;9952;47.122;-1.638;2022-08-01T14:44:29;1.27;;;0.50;;
19609;SDS011;9952;47.122;-1.638;2022-08-01T14:49:09;1.20;;;0.70;;
19609;SDS011;9952;47.122;-1.638;2022-08-01T14:53:50;1.88;;;0.82;;
19609;SDS011;9952;47.122;-1.638;2022-08-01T14:58:33;1.90;;;1.10;;
19609;SDS011;9952;47.122;-1.638;2022-08-01T15:03:13;3.00;;;1.20;;
19609;SDS011;9952;47.122;-1.638;2022-08-01T15:07:54;1.58;;;1.27;;
19609;SDS011;9952;47.122;-1.638;2022-08-01T15:12:35;1.90;;;0.88;;
19609;SDS011;9952;47.122;-1.638;2022-08-01T15:17:17;2.03;;;1.15;;
19609;SDS011;9952;47.122;-1.638;2022-08-01T15:22:00;1.40;;;1.08;;
19609;SDS011;9952;47.122;-1.638;2022-08-01T15:26:40;3.40;;;1.00;;
19609;SDS011;9952;47.122;-1.638;2022-08-01T15:31:21;2.33;;;0.98;;
19609;SDS011;9952;47.122;-1.638;2022-08-01T15:36:02;1.45;;;1.05;;
19609;SDS011;9952;47.122;-1.638;2022-08-01T15:40:43;6.63;;;1.13;;
19609;SDS011;9952;47.122;-1.638;2022-08-01T15:45:24;2.20;;;1.15;;
19609;SDS011;9952;47.122;-1.638;2022-08-01T15:50:06;2.20;;;1.27;;
19609;SDS011;9952;47.122;-1.638;2022-08-01T15:54:47;2.28;;;1.10;;
19609;SDS011;9952;47.122;-1.638;2022-08-01T15:59:28;1.48;;;1.15;;
19609;SDS011;9952;47.122;-1.638;2022-08-01T16:04:09;2.60;;;1.20;;
19609;SDS011;9952;47.122;-1.638;2022-08-01T16:08:50;1.35;;;1.00;;
19609;SDS011;9952;47.122;-1.638;2022-08-01T16:13:31;2.45;;;1.30;;
19609;SDS011;9952;47.122;-1.638;2022-08-01T16:18:11;1.92;;;1.25;;
19609;SDS011;9952;47.122;-1.638;2022-08-01T16:22:53;2.15;;;1.50;;
19609;SDS011;9952;47.122;-1.638;2022-08-01T16:27:34;3.85;;;1.42;;
19609;SDS011;9952;47.122;-1.638;2022-08-01T16:32:14;1.77;;;1.50;;
19609;SDS011;9952;47.122;-1.638;2022-08-01T16:36:55;2.50;;;1.83;;
19609;SDS011;9952;47.122;-1.638;2022-08-01T16:41:36;2.55;;;1.27;;
19609;SDS011;9952;47.122;-1.638;2022-08-01T16:46:17;3.50;;;1.45;;
19609;SDS011;9952;47.122;-1.638;2022-08-01T16:50:58;1.40;;;1.30;;
19609;SDS011;9952;47.122;-1.638;2022-08-01T16:55:40;2.90;;;1.40;;
19609;SDS011;9952;47.122;-1.638;2022-08-01T17:00:20;3.55;;;1.55;;
19609;SDS011;9952;47.122;-1.638;2022-08-01T17:05:05;4.00;;;1.02;;
19609;SDS011;9952;47.122;-1.638;2022-08-01T17:09:47;2.05;;;1.30;;
19609;SDS011;9952;47.122;-1.638;2022-08-01T17:14:27;3.90;;;1.10;;
19609;SDS011;9952;47.122;-1.638;2022-08-01T17:19:08;2.33;;;1.35;;
19609;SDS011;9952;47.122;-1.638;2022-08-01T17:23:49;2.78;;;1.30;;
19609;SDS011;9952;47.122;-1.638;2022-08-01T17:28:30;1.48;;;1.23;;
19609;SDS011;9952;47.122;-1.638;2022-08-01T17:33:11;2.95;;;1.25;;
19609;SDS011;9952;47.122;-1.638;2022-08-01T17:37:52;2.05;;;1.40;;
19609;SDS011;9952;47.122;-1.638;2022-08-01T17:42:32;1.90;;;1.08;;
19609;SDS011;9952;47.122;-1.638;2022-08-01T17:47:13;2.75;;;1.60;;
19609;SDS011;9952;47.122;-1.638;2022-08-01T17:51:54;1.58;;;1.38;;
19609;SDS011;9952;47.122;-1.638;2022-08-01T17:56:35;4.55;;;2.38;;
19609;SDS011;9952;47.122;-1.638;2022-08-01T18:01:16;3.17;;;1.27;;
19609;SDS011;9952;47.122;-1.638;2022-08-01T18:05:58;3.38;;;1.38;;
19609;SDS011;9952;47.122;-1.638;2022-08-01T18:16:16;3.85;;;1.50;;
19609;SDS011;9952;47.122;-1.638;2022-08-01T18:20:56;1.95;;;1.00;;
19609;SDS011;9952;47.122;-1.638;2022-08-01T18:25:38;1.80;;;1.45;;
19609;SDS011;9952;47.122;-1.638;2022-08-01T18:30:19;2.42;;;1.25;;
19609;SDS011;9952;47.122;-1.638;2022-08-01T18:35:00;5.28;;;1.40;;
19609;SDS011;9952;47.122;-1.638;2022-08-01T18:39:41;1.88;;;1.23;;
19609;SDS011;9952;47.122;-1.638;2022-08-01T18:44:22;1.30;;;1.20;;
19609;SDS011;9952;47.122;-1.638;2022-08-01T18:49:03;3.30;;;1.13;;
19609;SDS011;9952;47.122;-1.638;2022-08-01T18:53:45;4.35;;;1.00;;
19609;SDS011;9952;47.122;-1.638;2022-08-01T18:58:26;2.00;;;0.98;;
19609;SDS011;9952;47.122;-1.638;2022-08-01T19:03:07;1.40;;;1.30;;
19609;SDS011;9952;47.122;-1.638;2022-08-01T19:07:48;2.40;;;0.80;;
19609;SDS011;9952;47.122;-1.638;2022-08-01T19:12:29;4.65;;;0.82;;
19609;SDS011;9952;47.122;-1.638;2022-08-01T19:17:10;3.33;;;1.08;;
19609;SDS011;9952;47.122;-1.638;2022-08-01T19:21:53;1.67;;;1.20;;
19609;SDS011;9952;47.122;-1.638;2022-08-01T19:26:34;1.13;;;0.80;;
19609;SDS011;9952;47.122;-1.638;2022-08-01T19:31:16;3.45;;;0.93;;
19609;SDS011;9952;47.122;-1.638;2022-08-01T19:36:01;2.95;;;1.00;;
19609;SDS011;9952;47.122;-1.638;2022-08-01T19:40:42;3.08;;;1.23;;
19609;SDS011;9952;47.122;-1.638;2022-08-01T19:45:27;1.00;;;0.75;;
19609;SDS011;9952;47.122;-1.638;2022-08-01T19:50:08;1.65;;;1.20;;
19609;SDS011;9952;47.122;-1.638;2022-08-01T19:54:51;2.55;;;0.82;;
19609;SDS011;9952;47.122;-1.638;2022-08-01T19:59:34;2.90;;;1.25;;
19609;SDS011;9952;47.122;-1.638;2022-08-01T20:04:16;4.38;;;2.90;;
19609;SDS011;9952;47.122;-1.638;2022-08-01T20:08:57;3.23;;;2.10;;
19609;SDS011;9952;47.122;-1.638;2022-08-01T20:13:39;2.70;;;1.70;;
19609;SDS011;9952;47.122;-1.638;2022-08-01T20:18:20;1.50;;;1.40;;
19609;SDS011;9952;47.122;-1.638;2022-08-01T20:23:01;1.47;;;1.20;;
19609;SDS011;9952;47.122;-1.638;2022-08-01T20:27:45;1.70;;;1.60;;
19609;SDS011;9952;47.122;-1.638;2022-08-01T20:32:27;7.43;;;5.60;;
19609;SDS011;9952;47.122;-1.638;2022-08-01T20:37:11;12.83;;;8.63;;
19609;SDS011;9952;47.122;-1.638;2022-08-01T20:41:52;5.23;;;4.10;;
19609;SDS011;9952;47.122;-1.638;2022-08-01T20:46:33;3.07;;;1.67;;
19609;SDS011;9952;47.122;-1.638;2022-08-01T20:51:17;2.57;;;1.40;;
19609;SDS011;9952;47.122;-1.638;2022-08-01T20:56:04;3.67;;;1.30;;
19609;SDS011;9952;47.122;-1.638;2022-08-01T21:00:49;1.63;;;1.00;;
19609;SDS011;9952;47.122;-1.638;2022-08-01T21:05:35;3.13;;;1.13;;
19609;SDS011;9952;47.122;-1.638;2022-08-01T21:10:20;1.63;;;1.53;;
19609;SDS011;9952;47.122;-1.638;2022-08-01T21:15:03;3.03;;;1.57;;
19609;SDS011;9952;47.122;-1.638;2022-08-01T21:19:44;4.83;;;1.63;;
19609;SDS011;9952;47.122;-1.638;2022-08-01T21:24:33;3.33;;;1.33;;
19609;SDS011;9952;47.122;-1.638;2022-08-01T21:29:32;1.50;;;1.40;;
19609;SDS011;9952;47.122;-1.638;2022-08-01T21:34:15;4.87;;;2.57;;
19609;SDS011;9952;47.122;-1.638;2022-08-01T21:38:56;3.07;;;1.30;;
19609;SDS011;9952;47.122;-1.638;2022-08-01T21:43:38;2.40;;;1.50;;
19609;SDS011;9952;47.122;-1.638;2022-08-01T21:48:21;4.40;;;1.90;;
19609;SDS011;9952;47.122;-1.638;2022-08-01T21:58:41;4.30;;;1.60;;
19609;SDS011;9952;47.122;-1.638;2022-08-01T22:03:34;2.40;;;1.50;;
19609;SDS011;9952;47.122;-1.638;2022-08-01T22:08:28;1.57;;;1.30;;
19609;SDS011;9952;47.122;-1.638;2022-08-01T22:13:12;2.07;;;1.40;;
19609;SDS011;9952;47.122;-1.638;2022-08-01T22:17:53;4.87;;;1.33;;
19609;SDS011;9952;47.122;-1.638;2022-08-01T22:22:35;2.53;;;1.40;;
19609;SDS011;9952;47.122;-1.638;2022-08-01T22:27:17;1.50;;;1.40;;
19609;SDS011;9952;47.122;-1.638;2022-08-01T22:32:04;1.87;;;1.10;;
19609;SDS011;9952;47.122;-1.638;2022-08-01T22:36:45;2.53;;;1.20;;
19609;SDS011;9952;47.122;-1.638;2022-08-01T22:41:28;2.17;;;1.23;;
19609;SDS011;9952;47.122;-1.638;2022-08-01T22:46:20;2.37;;;1.47;;
19609;SDS011;9952;47.122;-1.638;2022-08-01T22:51:31;4.07;;;1.23;;
19609;SDS011;9952;47.122;-1.638;2022-08-01T22:56:21;1.70;;;1.20;;
19609;SDS011;9952;47.122;-1.638;2022-08-01T23:01:02;1.60;;;1.37;;
19609;SDS011;9952;47.122;-1.638;2022-08-01T23:05:54;3.00;;;1.23;;
19609;SDS011;9952;47.122;-1.638;2022-08-01T23:10:41;1.87;;;1.20;;
19609;SDS011;9952;47.122;-1.638;2022-08-01T23:15:23;1.73;;;1.13;;
19609;SDS011;9952;47.122;-1.638;2022-08-01T23:20:05;2.43;;;1.20;;
19609;SDS011;9952;47.122;-1.638;2022-08-01T23:24:46;1.67;;;1.33;;
19609;SDS011;9952;47.122;-1.638;2022-08-01T23:29:31;1.50;;;1.40;;
19609;SDS011;9952;47.122;-1.638;2022-08-01T23:34:12;2.47;;;1.60;;
19609;SDS011;9952;47.122;-1.638;2022-08-01T23:38:52;1.43;;;1.33;;
19609;SDS011;9952;47.122;-1.638;2022-08-01T23:43:33;2.33;;;1.30;;
19609;SDS011;9952;47.122;-1.638;2022-08-01T23:48:14;4.43;;;1.33;;
19609;SDS011;9952;47.122;-1.638;2022-08-01T23:52:55;4.30;;;1.60;;
19609;SDS011;9952;47.122;-1.638;2022-08-01T23:57:36;2.80;;;1.13;;
